Millheim, Texas
Current Conditions -  °F | °C
As of 8:55 PM on Tuesday 21 Oct 2014 (Local Time) from KELA Reporting Station
Clear Clear  
Wind Chill: 19°   Ceiling: Unl
Heat Index: 19°   Visibility: 10mi
Dew Point: 13°   Wind: 0mph
Humidity: 69%   Direction: NA
Pressure: 30.02"   Gusts: NA
Location:  29.7835°N, 96.2064°W
Report Text: KELA 220155Z AUTO 00000KT 10SM CLR 19/13 A3002 RMK AO2 T01860129
Loading
Personal Weather Stations






























Interactive Weather Map
Tropical Storm Tracking
New forecast layout! Learn more

10-Day Weather Forecast

Advertisements
Track Severe Weather on mobile